sensor_id;sensor_type;location;lat;lon;timestamp;temperature;humidity
18611;DHT22;9435;52.122;5.502;2024-03-25T00:01:04;4.60;99.90
18611;DHT22;9435;52.122;5.502;2024-03-25T00:03:32;4.60;99.90
18611;DHT22;9435;52.122;5.502;2024-03-25T00:05:58;4.50;99.90
18611;DHT22;9435;52.122;5.502;2024-03-25T00:08:25;4.50;99.90
18611;DHT22;9435;52.122;5.502;2024-03-25T00:10:51;4.40;99.90
18611;DHT22;9435;52.122;5.502;2024-03-25T00:13:18;4.40;99.90
18611;DHT22;9435;52.122;5.502;2024-03-25T00:15:47;4.40;99.90
18611;DHT22;9435;52.122;5.502;2024-03-25T00:18:14;4.40;99.90
18611;DHT22;9435;52.122;5.502;2024-03-25T00:20:40;4.40;99.90
18611;DHT22;9435;52.122;5.502;2024-03-25T00:23:07;4.40;99.90
18611;DHT22;9435;52.122;5.502;2024-03-25T00:25:33;4.40;99.90
18611;DHT22;9435;52.122;5.502;2024-03-25T00:28:00;4.40;99.90
18611;DHT22;9435;52.122;5.502;2024-03-25T00:30:26;4.40;99.90
18611;DHT22;9435;52.122;5.502;2024-03-25T00:32:55;4.30;99.90
18611;DHT22;9435;52.122;5.502;2024-03-25T00:35:21;4.30;99.90
18611;DHT22;9435;52.122;5.502;2024-03-25T00:37:49;4.30;99.90
18611;DHT22;9435;52.122;5.502;2024-03-25T00:40:15;4.20;99.90
18611;DHT22;9435;52.122;5.502;2024-03-25T00:42:42;4.10;99.90
18611;DHT22;9435;52.122;5.502;2024-03-25T00:45:08;4.10;99.90
18611;DHT22;9435;52.122;5.502;2024-03-25T00:47:36;4.10;99.90
18611;DHT22;9435;52.122;5.502;2024-03-25T00:50:04;4.00;99.90
18611;DHT22;9435;52.122;5.502;2024-03-25T00:52:31;3.90;99.90
18611;DHT22;9435;52.122;5.502;2024-03-25T00:54:57;3.80;99.90
18611;DHT22;9435;52.122;5.502;2024-03-25T00:57:24;3.80;99.90
18611;DHT22;9435;52.122;5.502;2024-03-25T00:59:51;3.70;99.90
18611;DHT22;9435;52.122;5.502;2024-03-25T01:02:18;3.80;99.90
18611;DHT22;9435;52.122;5.502;2024-03-25T01:04:44;3.70;99.90
18611;DHT22;9435;52.122;5.502;2024-03-25T01:07:12;3.70;99.90
18611;DHT22;9435;52.122;5.502;2024-03-25T01:09:38;3.70;99.90
18611;DHT22;9435;52.122;5.502;2024-03-25T01:12:06;3.70;99.90
18611;DHT22;9435;52.122;5.502;2024-03-25T01:14:32;3.60;99.90
18611;DHT22;9435;52.122;5.502;2024-03-25T01:16:59;3.60;99.90
18611;DHT22;9435;52.122;5.502;2024-03-25T01:19:25;3.50;99.90
18611;DHT22;9435;52.122;5.502;2024-03-25T01:21:52;3.50;99.90
18611;DHT22;9435;52.122;5.502;2024-03-25T01:24:19;3.50;99.90
18611;DHT22;9435;52.122;5.502;2024-03-25T01:26:46;3.50;99.90
18611;DHT22;9435;52.122;5.502;2024-03-25T01:29:12;3.50;99.90
18611;DHT22;9435;52.122;5.502;2024-03-25T01:31:39;3.50;99.90
18611;DHT22;9435;52.122;5.502;2024-03-25T01:34:05;3.50;99.90
18611;DHT22;9435;52.122;5.502;2024-03-25T01:36:33;3.60;99.90
18611;DHT22;9435;52.122;5.502;2024-03-25T01:39:00;3.60;99.90
18611;DHT22;9435;52.122;5.502;2024-03-25T01:41:28;3.60;99.90
18611;DHT22;9435;52.122;5.502;2024-03-25T01:43:54;3.60;99.90
18611;DHT22;9435;52.122;5.502;2024-03-25T01:46:21;3.70;99.90
18611;DHT22;9435;52.122;5.502;2024-03-25T01:48:48;3.60;99.90
18611;DHT22;9435;52.122;5.502;2024-03-25T01:51:19;3.70;99.90
18611;DHT22;9435;52.122;5.502;2024-03-25T01:53:46;3.60;99.90
18611;DHT22;9435;52.122;5.502;2024-03-25T01:56:14;3.60;99.90
18611;DHT22;9435;52.122;5.502;2024-03-25T01:58:42;3.60;99.90
18611;DHT22;9435;52.122;5.502;2024-03-25T02:01:10;3.60;99.90
18611;DHT22;9435;52.122;5.502;2024-03-25T02:03:39;3.70;99.90
18611;DHT22;9435;52.122;5.502;2024-03-25T02:06:11;3.60;99.90
18611;DHT22;9435;52.122;5.502;2024-03-25T02:08:39;3.60;99.90
18611;DHT22;9435;52.122;5.502;2024-03-25T02:11:07;3.60;99.90
18611;DHT22;9435;52.122;5.502;2024-03-25T02:13:34;3.60;99.90
18611;DHT22;9435;52.122;5.502;2024-03-25T02:16:03;3.60;99.90
18611;DHT22;9435;52.122;5.502;2024-03-25T02:18:30;3.60;99.90
18611;DHT22;9435;52.122;5.502;2024-03-25T02:20:57;3.60;99.90
18611;DHT22;9435;52.122;5.502;2024-03-25T02:23:24;3.60;99.90
18611;DHT22;9435;52.122;5.502;2024-03-25T02:25:53;3.60;99.90
18611;DHT22;9435;52.122;5.502;2024-03-25T02:28:19;3.70;99.90
18611;DHT22;9435;52.122;5.502;2024-03-25T02:30:47;3.70;99.90
18611;DHT22;9435;52.122;5.502;2024-03-25T02:33:13;3.70;99.90
18611;DHT22;9435;52.122;5.502;2024-03-25T02:35:41;3.70;99.90
18611;DHT22;9435;52.122;5.502;2024-03-25T02:38:08;3.70;99.90
18611;DHT22;9435;52.122;5.502;2024-03-25T02:40:36;3.70;99.90
18611;DHT22;9435;52.122;5.502;2024-03-25T02:43:04;3.80;99.90
18611;DHT22;9435;52.122;5.502;2024-03-25T02:45:33;3.80;99.90
18611;DHT22;9435;52.122;5.502;2024-03-25T02:47:59;3.80;99.90
18611;DHT22;9435;52.122;5.502;2024-03-25T02:50:26;3.80;99.90
18611;DHT22;9435;52.122;5.502;2024-03-25T02:52:52;3.80;99.90
18611;DHT22;9435;52.122;5.502;2024-03-25T02:55:19;3.80;99.90
18611;DHT22;9435;52.122;5.502;2024-03-25T02:57:45;3.80;99.90
18611;DHT22;9435;52.122;5.502;2024-03-25T03:00:14;3.80;99.90
18611;DHT22;9435;52.122;5.502;2024-03-25T03:02:40;3.80;99.90
18611;DHT22;9435;52.122;5.502;2024-03-25T03:05:08;3.80;99.90
18611;DHT22;9435;52.122;5.502;2024-03-25T03:07:34;3.70;99.90
18611;DHT22;9435;52.122;5.502;2024-03-25T03:10:01;3.70;99.90
18611;DHT22;9435;52.122;5.502;2024-03-25T03:12:27;3.70;99.90
18611;DHT22;9435;52.122;5.502;2024-03-25T03:14:54;3.60;99.90
18611;DHT22;9435;52.122;5.502;2024-03-25T03:17:22;3.60;99.90
18611;DHT22;9435;52.122;5.502;2024-03-25T03:19:49;3.50;99.90
18611;DHT22;9435;52.122;5.502;2024-03-25T03:22:15;3.50;99.90
18611;DHT22;9435;52.122;5.502;2024-03-25T03:24:42;3.40;99.90
18611;DHT22;9435;52.122;5.502;2024-03-25T03:27:08;3.40;99.90
18611;DHT22;9435;52.122;5.502;2024-03-25T03:29:35;3.40;99.90
18611;DHT22;9435;52.122;5.502;2024-03-25T03:32:01;3.40;99.90
18611;DHT22;9435;52.122;5.502;2024-03-25T03:34:29;3.40;99.90
18611;DHT22;9435;52.122;5.502;2024-03-25T03:36:55;3.40;99.90
18611;DHT22;9435;52.122;5.502;2024-03-25T03:39:22;3.40;99.90
18611;DHT22;9435;52.122;5.502;2024-03-25T03:41:48;3.30;99.90
18611;DHT22;9435;52.122;5.502;2024-03-25T03:44:15;3.30;99.90
18611;DHT22;9435;52.122;5.502;2024-03-25T03:46:41;3.30;99.90
18611;DHT22;9435;52.122;5.502;2024-03-25T03:49:09;3.30;99.90
18611;DHT22;9435;52.122;5.502;2024-03-25T03:51:36;3.20;99.90
18611;DHT22;9435;52.122;5.502;2024-03-25T03:54:03;3.20;99.90
18611;DHT22;9435;52.122;5.502;2024-03-25T03:56:29;3.20;99.90
18611;DHT22;9435;52.122;5.502;2024-03-25T03:58:56;3.10;99.90
18611;DHT22;9435;52.122;5.502;2024-03-25T04:01:22;3.10;99.90
18611;DHT22;9435;52.122;5.502;2024-03-25T04:03:49;3.10;99.90
18611;DHT22;9435;52.122;5.502;2024-03-25T04:06:15;3.00;99.90
18611;DHT22;9435;52.122;5.502;2024-03-25T04:08:44;3.00;99.90
18611;DHT22;9435;52.122;5.502;2024-03-25T04:11:10;2.90;99.90
18611;DHT22;9435;52.122;5.502;2024-03-25T04:13:37;2.90;99.90
18611;DHT22;9435;52.122;5.502;2024-03-25T04:16:05;2.80;99.90
18611;DHT22;9435;52.122;5.502;2024-03-25T04:18:33;2.70;99.90
18611;DHT22;9435;52.122;5.502;2024-03-25T04:21:00;2.60;99.90
18611;DHT22;9435;52.122;5.502;2024-03-25T04:23:27;2.50;99.90
18611;DHT22;9435;52.122;5.502;2024-03-25T04:25:55;2.50;99.90
18611;DHT22;9435;52.122;5.502;2024-03-25T04:28:22;2.50;99.90
18611;DHT22;9435;52.122;5.502;2024-03-25T04:30:52;2.50;99.90
18611;DHT22;9435;52.122;5.502;2024-03-25T04:33:20;2.50;99.90
18611;DHT22;9435;52.122;5.502;2024-03-25T04:35:46;2.50;99.90
18611;DHT22;9435;52.122;5.502;2024-03-25T04:38:16;2.50;99.90
18611;DHT22;9435;52.122;5.502;2024-03-25T04:40:42;2.40;99.90
18611;DHT22;9435;52.122;5.502;2024-03-25T04:43:10;2.40;99.90
18611;DHT22;9435;52.122;5.502;2024-03-25T04:45:36;2.50;99.90
18611;DHT22;9435;52.122;5.502;2024-03-25T04:48:03;2.60;99.90
18611;DHT22;9435;52.122;5.502;2024-03-25T04:50:30;2.60;99.90
18611;DHT22;9435;52.122;5.502;2024-03-25T04:52:56;2.60;99.90
18611;DHT22;9435;52.122;5.502;2024-03-25T04:55:22;2.70;99.90
18611;DHT22;9435;52.122;5.502;2024-03-25T04:57:48;2.70;99.90
18611;DHT22;9435;52.122;5.502;2024-03-25T05:00:16;2.70;99.90
18611;DHT22;9435;52.122;5.502;2024-03-25T05:02:42;2.70;99.90
18611;DHT22;9435;52.122;5.502;2024-03-25T05:05:09;2.70;99.90
18611;DHT22;9435;52.122;5.502;2024-03-25T05:07:35;2.70;99.90
18611;DHT22;9435;52.122;5.502;2024-03-25T05:10:01;2.70;99.90
18611;DHT22;9435;52.122;5.502;2024-03-25T05:12:27;2.60;99.90
18611;DHT22;9435;52.122;5.502;2024-03-25T05:14:53;2.60;99.90
18611;DHT22;9435;52.122;5.502;2024-03-25T05:17:21;2.60;99.90
18611;DHT22;9435;52.122;5.502;2024-03-25T05:19:47;2.50;99.90
18611;DHT22;9435;52.122;5.502;2024-03-25T05:22:13;2.40;99.90
18611;DHT22;9435;52.122;5.502;2024-03-25T05:24:39;2.40;99.90
18611;DHT22;9435;52.122;5.502;2024-03-25T05:27:05;2.30;99.90
18611;DHT22;9435;52.122;5.502;2024-03-25T05:29:31;2.30;99.90
18611;DHT22;9435;52.122;5.502;2024-03-25T05:31:58;2.20;99.90
18611;DHT22;9435;52.122;5.502;2024-03-25T05:34:27;2.20;99.90
18611;DHT22;9435;52.122;5.502;2024-03-25T05:36:53;2.20;99.90
18611;DHT22;9435;52.122;5.502;2024-03-25T05:39:19;2.30;99.90
18611;DHT22;9435;52.122;5.502;2024-03-25T05:41:45;2.30;99.90
18611;DHT22;9435;52.122;5.502;2024-03-25T05:44:12;2.30;99.90
18611;DHT22;9435;52.122;5.502;2024-03-25T05:46:38;2.40;99.90
18611;DHT22;9435;52.122;5.502;2024-03-25T05:49:05;2.50;99.90
18611;DHT22;9435;52.122;5.502;2024-03-25T05:51:32;2.50;99.90
18611;DHT22;9435;52.122;5.502;2024-03-25T05:53:59;2.60;99.90
18611;DHT22;9435;52.122;5.502;2024-03-25T05:56:25;2.70;99.90
18611;DHT22;9435;52.122;5.502;2024-03-25T05:58:51;2.70;99.90
18611;DHT22;9435;52.122;5.502;2024-03-25T06:01:17;2.70;99.90
18611;DHT22;9435;52.122;5.502;2024-03-25T06:03:43;2.70;99.90
18611;DHT22;9435;52.122;5.502;2024-03-25T06:06:10;2.70;99.90
18611;DHT22;9435;52.122;5.502;2024-03-25T06:08:38;2.80;99.90
18611;DHT22;9435;52.122;5.502;2024-03-25T06:11:04;2.80;99.90
18611;DHT22;9435;52.122;5.502;2024-03-25T06:13:31;2.80;99.90
18611;DHT22;9435;52.122;5.502;2024-03-25T06:15:57;2.80;99.90
18611;DHT22;9435;52.122;5.502;2024-03-25T06:18:23;2.90;99.90
18611;DHT22;9435;52.122;5.502;2024-03-25T06:20:49;2.90;99.90
18611;DHT22;9435;52.122;5.502;2024-03-25T06:23:22;3.00;99.90
18611;DHT22;9435;52.122;5.502;2024-03-25T06:25:51;3.10;99.90
18611;DHT22;9435;52.122;5.502;2024-03-25T06:28:17;3.10;99.90
18611;DHT22;9435;52.122;5.502;2024-03-25T06:30:44;3.10;99.90
18611;DHT22;9435;52.122;5.502;2024-03-25T06:33:29;3.20;99.90
18611;DHT22;9435;52.122;5.502;2024-03-25T06:36:13;3.30;99.90
18611;DHT22;9435;52.122;5.502;2024-03-25T06:38:39;3.40;99.90
18611;DHT22;9435;52.122;5.502;2024-03-25T06:41:07;3.50;99.90
18611;DHT22;9435;52.122;5.502;2024-03-25T06:43:33;3.50;99.90
18611;DHT22;9435;52.122;5.502;2024-03-25T06:45:59;3.70;99.90
18611;DHT22;9435;52.122;5.502;2024-03-25T06:48:25;3.80;99.90
18611;DHT22;9435;52.122;5.502;2024-03-25T06:50:55;4.00;99.90
18611;DHT22;9435;52.122;5.502;2024-03-25T06:53:21;4.10;99.90
18611;DHT22;9435;52.122;5.502;2024-03-25T06:55:57;4.30;99.90
18611;DHT22;9435;52.122;5.502;2024-03-25T06:58:27;4.50;99.90
18611;DHT22;9435;52.122;5.502;2024-03-25T07:00:54;4.60;99.90
18611;DHT22;9435;52.122;5.502;2024-03-25T07:03:21;4.90;99.90
18611;DHT22;9435;52.122;5.502;2024-03-25T07:05:47;5.00;99.90
18611;DHT22;9435;52.122;5.502;2024-03-25T07:08:13;5.10;99.90
18611;DHT22;9435;52.122;5.502;2024-03-25T07:10:42;5.20;99.90
18611;DHT22;9435;52.122;5.502;2024-03-25T07:13:08;5.40;99.90
18611;DHT22;9435;52.122;5.502;2024-03-25T07:15:35;5.60;99.90
18611;DHT22;9435;52.122;5.502;2024-03-25T07:18:01;5.70;99.90
18611;DHT22;9435;52.122;5.502;2024-03-25T07:20:28;5.90;99.90
18611;DHT22;9435;52.122;5.502;2024-03-25T07:22:54;5.90;99.90
18611;DHT22;9435;52.122;5.502;2024-03-25T07:25:20;6.00;99.90
18611;DHT22;9435;52.122;5.502;2024-03-25T07:27:46;6.20;99.90
18611;DHT22;9435;52.122;5.502;2024-03-25T07:30:12;6.30;99.90
18611;DHT22;9435;52.122;5.502;2024-03-25T07:32:40;6.50;99.90
18611;DHT22;9435;52.122;5.502;2024-03-25T07:35:06;6.60;99.90
18611;DHT22;9435;52.122;5.502;2024-03-25T07:37:33;6.80;99.90
18611;DHT22;9435;52.122;5.502;2024-03-25T07:39:59;7.00;99.90
18611;DHT22;9435;52.122;5.502;2024-03-25T07:42:25;7.10;99.90
18611;DHT22;9435;52.122;5.502;2024-03-25T07:44:51;7.30;99.90
18611;DHT22;9435;52.122;5.502;2024-03-25T07:47:17;7.40;99.90
18611;DHT22;9435;52.122;5.502;2024-03-25T07:49:45;7.60;99.90
18611;DHT22;9435;52.122;5.502;2024-03-25T07:52:11;7.60;99.90
18611;DHT22;9435;52.122;5.502;2024-03-25T07:54:37;7.70;99.90
18611;DHT22;9435;52.122;5.502;2024-03-25T07:57:03;7.80;99.90
18611;DHT22;9435;52.122;5.502;2024-03-25T07:59:29;7.90;99.90
18611;DHT22;9435;52.122;5.502;2024-03-25T08:01:56;8.10;99.90
18611;DHT22;9435;52.122;5.502;2024-03-25T08:04:22;8.10;99.90
18611;DHT22;9435;52.122;5.502;2024-03-25T08:06:49;8.20;99.90
18611;DHT22;9435;52.122;5.502;2024-03-25T08:09:15;8.20;99.90
18611;DHT22;9435;52.122;5.502;2024-03-25T08:11:42;8.30;99.90
18611;DHT22;9435;52.122;5.502;2024-03-25T08:14:08;8.40;99.90
18611;DHT22;9435;52.122;5.502;2024-03-25T08:16:34;8.50;99.90
18611;DHT22;9435;52.122;5.502;2024-03-25T08:19:00;8.40;99.90
18611;DHT22;9435;52.122;5.502;2024-03-25T08:21:26;8.50;99.90
18611;DHT22;9435;52.122;5.502;2024-03-25T08:23:54;8.80;99.90
18611;DHT22;9435;52.122;5.502;2024-03-25T08:26:20;8.90;62.20
18611;DHT22;9435;52.122;5.502;2024-03-25T08:28:46;9.00;1.00
18611;DHT22;9435;52.122;5.502;2024-03-25T08:31:12;9.10;1.90
18611;DHT22;9435;52.122;5.502;2024-03-25T08:33:38;9.20;1.00
18611;DHT22;9435;52.122;5.502;2024-03-25T08:36:05;9.30;1.00
18611;DHT22;9435;52.122;5.502;2024-03-25T08:38:31;9.40;1.00
18611;DHT22;9435;52.122;5.502;2024-03-25T08:40:58;9.30;1.00
18611;DHT22;9435;52.122;5.502;2024-03-25T08:43:24;9.20;1.00
18611;DHT22;9435;52.122;5.502;2024-03-25T08:45:50;9.00;1.00
18611;DHT22;9435;52.122;5.502;2024-03-25T08:48:16;9.20;1.00
18611;DHT22;9435;52.122;5.502;2024-03-25T08:50:43;9.20;1.00
18611;DHT22;9435;52.122;5.502;2024-03-25T08:53:09;9.40;1.00
18611;DHT22;9435;52.122;5.502;2024-03-25T08:55:35;9.70;1.00
18611;DHT22;9435;52.122;5.502;2024-03-25T08:58:02;9.40;1.00
18611;DHT22;9435;52.122;5.502;2024-03-25T09:00:29;9.30;1.00
18611;DHT22;9435;52.122;5.502;2024-03-25T09:02:55;9.40;1.00
18611;DHT22;9435;52.122;5.502;2024-03-25T09:05:21;9.30;1.00
18611;DHT22;9435;52.122;5.502;2024-03-25T09:07:49;9.40;1.00
18611;DHT22;9435;52.122;5.502;2024-03-25T09:10:16;9.50;1.00
18611;DHT22;9435;52.122;5.502;2024-03-25T09:13:02;9.40;1.00
18611;DHT22;9435;52.122;5.502;2024-03-25T09:15:28;9.50;1.00
18611;DHT22;9435;52.122;5.502;2024-03-25T09:17:54;9.40;1.00
18611;DHT22;9435;52.122;5.502;2024-03-25T09:20:21;9.30;1.00
18611;DHT22;9435;52.122;5.502;2024-03-25T09:22:47;9.30;1.00
18611;DHT22;9435;52.122;5.502;2024-03-25T09:25:14;9.40;99.90
18611;DHT22;9435;52.122;5.502;2024-03-25T09:27:40;9.60;99.90
18611;DHT22;9435;52.122;5.502;2024-03-25T09:30:08;9.70;1.00
18611;DHT22;9435;52.122;5.502;2024-03-25T09:32:34;9.70;1.00
18611;DHT22;9435;52.122;5.502;2024-03-25T09:35:01;9.80;1.00
18611;DHT22;9435;52.122;5.502;2024-03-25T09:37:27;9.90;1.00
18611;DHT22;9435;52.122;5.502;2024-03-25T09:39:53;9.90;1.00
18611;DHT22;9435;52.122;5.502;2024-03-25T09:42:25;10.10;1.00
18611;DHT22;9435;52.122;5.502;2024-03-25T09:44:52;10.20;99.90
18611;DHT22;9435;52.122;5.502;2024-03-25T09:47:20;10.10;1.00
18611;DHT22;9435;52.122;5.502;2024-03-25T09:49:48;10.30;1.00
18611;DHT22;9435;52.122;5.502;2024-03-25T09:52:14;10.30;99.90
18611;DHT22;9435;52.122;5.502;2024-03-25T09:54:40;10.00;1.00
18611;DHT22;9435;52.122;5.502;2024-03-25T09:57:07;9.90;1.00
18611;DHT22;9435;52.122;5.502;2024-03-25T09:59:34;9.90;1.00
18611;DHT22;9435;52.122;5.502;2024-03-25T10:02:01;9.80;1.00
18611;DHT22;9435;52.122;5.502;2024-03-25T10:04:29;9.90;1.00
18611;DHT22;9435;52.122;5.502;2024-03-25T10:06:55;9.80;1.00
18611;DHT22;9435;52.122;5.502;2024-03-25T10:09:21;9.80;99.90
18611;DHT22;9435;52.122;5.502;2024-03-25T10:11:48;10.10;31.30
18611;DHT22;9435;52.122;5.502;2024-03-25T10:14:15;10.30;99.90
18611;DHT22;9435;52.122;5.502;2024-03-25T10:16:41;10.50;27.70
18611;DHT22;9435;52.122;5.502;2024-03-25T10:19:07;10.50;1.00
18611;DHT22;9435;52.122;5.502;2024-03-25T10:21:35;10.70;1.00
18611;DHT22;9435;52.122;5.502;2024-03-25T10:24:04;10.70;99.90
18611;DHT22;9435;52.122;5.502;2024-03-25T10:26:31;10.80;1.00
18611;DHT22;9435;52.122;5.502;2024-03-25T10:29:02;10.70;99.90
18611;DHT22;9435;52.122;5.502;2024-03-25T10:31:29;10.70;1.00
18611;DHT22;9435;52.122;5.502;2024-03-25T10:33:55;10.60;1.00
18611;DHT22;9435;52.122;5.502;2024-03-25T10:36:21;10.60;1.00
18611;DHT22;9435;52.122;5.502;2024-03-25T10:38:53;10.50;99.90
18611;DHT22;9435;52.122;5.502;2024-03-25T10:41:21;10.50;1.00
18611;DHT22;9435;52.122;5.502;2024-03-25T10:43:48;10.50;1.00
18611;DHT22;9435;52.122;5.502;2024-03-25T10:46:18;10.40;1.00
18611;DHT22;9435;52.122;5.502;2024-03-25T10:48:50;10.60;1.00
18611;DHT22;9435;52.122;5.502;2024-03-25T10:51:21;10.90;1.00
18611;DHT22;9435;52.122;5.502;2024-03-25T10:53:51;11.00;99.90
18611;DHT22;9435;52.122;5.502;2024-03-25T10:56:20;11.30;1.00
18611;DHT22;9435;52.122;5.502;2024-03-25T10:58:48;11.50;1.00
18611;DHT22;9435;52.122;5.502;2024-03-25T11:01:16;11.50;1.00
18611;DHT22;9435;52.122;5.502;2024-03-25T11:03:43;11.60;1.00
18611;DHT22;9435;52.122;5.502;2024-03-25T11:06:09;11.70;99.90
18611;DHT22;9435;52.122;5.502;2024-03-25T11:08:36;11.70;1.00
18611;DHT22;9435;52.122;5.502;2024-03-25T11:11:04;11.50;1.00
18611;DHT22;9435;52.122;5.502;2024-03-25T11:13:31;11.40;1.00
18611;DHT22;9435;52.122;5.502;2024-03-25T11:15:58;11.30;99.90
18611;DHT22;9435;52.122;5.502;2024-03-25T11:18:24;11.30;1.00
18611;DHT22;9435;52.122;5.502;2024-03-25T11:21:00;11.30;1.00
18611;DHT22;9435;52.122;5.502;2024-03-25T11:23:34;11.30;1.00
18611;DHT22;9435;52.122;5.502;2024-03-25T11:26:01;11.50;1.00
18611;DHT22;9435;52.122;5.502;2024-03-25T11:28:29;11.60;99.90
18611;DHT22;9435;52.122;5.502;2024-03-25T11:30:56;11.80;99.90
18611;DHT22;9435;52.122;5.502;2024-03-25T11:33:22;12.00;99.90
18611;DHT22;9435;52.122;5.502;2024-03-25T11:35:49;12.10;99.90
18611;DHT22;9435;52.122;5.502;2024-03-25T11:38:15;11.90;99.90
18611;DHT22;9435;52.122;5.502;2024-03-25T11:40:45;12.00;89.80
18611;DHT22;9435;52.122;5.502;2024-03-25T11:43:18;12.20;18.80
18611;DHT22;9435;52.122;5.502;2024-03-25T11:45:48;12.10;1.00
18611;DHT22;9435;52.122;5.502;2024-03-25T11:48:15;12.20;21.40
18611;DHT22;9435;52.122;5.502;2024-03-25T11:50:41;12.50;1.00
18611;DHT22;9435;52.122;5.502;2024-03-25T11:53:07;12.50;1.00
18611;DHT22;9435;52.122;5.502;2024-03-25T11:55:33;12.50;1.00
18611;DHT22;9435;52.122;5.502;2024-03-25T11:58:00;12.50;37.50
18611;DHT22;9435;52.122;5.502;2024-03-25T12:00:26;12.60;1.00
18611;DHT22;9435;52.122;5.502;2024-03-25T12:02:54;12.80;24.10
18611;DHT22;9435;52.122;5.502;2024-03-25T12:05:20;12.80;9.00
18611;DHT22;9435;52.122;5.502;2024-03-25T12:07:47;12.80;7.90
18611;DHT22;9435;52.122;5.502;2024-03-25T12:10:14;12.60;1.00
18611;DHT22;9435;52.122;5.502;2024-03-25T12:12:59;12.60;1.00
18611;DHT22;9435;52.122;5.502;2024-03-25T12:15:25;12.90;1.00
18611;DHT22;9435;52.122;5.502;2024-03-25T12:17:53;13.00;5.20
18611;DHT22;9435;52.122;5.502;2024-03-25T12:20:20;13.10;17.60
18611;DHT22;9435;52.122;5.502;2024-03-25T12:22:46;13.30;6.60
18611;DHT22;9435;52.122;5.502;2024-03-25T12:25:12;13.20;1.00
18611;DHT22;9435;52.122;5.502;2024-03-25T12:27:39;13.20;1.00
18611;DHT22;9435;52.122;5.502;2024-03-25T12:30:08;13.10;1.00
18611;DHT22;9435;52.122;5.502;2024-03-25T12:32:38;13.10;1.00
18611;DHT22;9435;52.122;5.502;2024-03-25T12:35:08;13.20;1.00
18611;DHT22;9435;52.122;5.502;2024-03-25T12:37:36;13.20;1.00
18611;DHT22;9435;52.122;5.502;2024-03-25T12:40:03;13.10;1.00
18611;DHT22;9435;52.122;5.502;2024-03-25T12:42:30;13.10;1.00
18611;DHT22;9435;52.122;5.502;2024-03-25T12:44:56;13.30;1.00
18611;DHT22;9435;52.122;5.502;2024-03-25T12:47:23;13.40;1.00
18611;DHT22;9435;52.122;5.502;2024-03-25T12:49:49;13.50;1.00
18611;DHT22;9435;52.122;5.502;2024-03-25T12:52:16;13.50;1.00
18611;DHT22;9435;52.122;5.502;2024-03-25T12:54:42;13.30;1.00
18611;DHT22;9435;52.122;5.502;2024-03-25T12:57:08;13.30;1.00
18611;DHT22;9435;52.122;5.502;2024-03-25T12:59:35;13.30;1.00
18611;DHT22;9435;52.122;5.502;2024-03-25T13:02:01;13.30;1.00
18611;DHT22;9435;52.122;5.502;2024-03-25T13:04:27;13.30;1.00
18611;DHT22;9435;52.122;5.502;2024-03-25T13:06:53;13.20;1.00
18611;DHT22;9435;52.122;5.502;2024-03-25T13:09:20;13.20;1.00
18611;DHT22;9435;52.122;5.502;2024-03-25T13:11:47;12.90;1.00
18611;DHT22;9435;52.122;5.502;2024-03-25T13:14:13;12.70;1.00
18611;DHT22;9435;52.122;5.502;2024-03-25T13:16:39;12.80;1.00
18611;DHT22;9435;52.122;5.502;2024-03-25T13:19:06;12.90;1.00
18611;DHT22;9435;52.122;5.502;2024-03-25T13:21:32;13.00;1.00
18611;DHT22;9435;52.122;5.502;2024-03-25T13:23:59;13.10;1.00
18611;DHT22;9435;52.122;5.502;2024-03-25T13:26:26;13.10;1.00
18611;DHT22;9435;52.122;5.502;2024-03-25T13:28:53;13.10;1.00
18611;DHT22;9435;52.122;5.502;2024-03-25T13:31:19;13.10;1.00
18611;DHT22;9435;52.122;5.502;2024-03-25T13:33:45;12.90;1.00
18611;DHT22;9435;52.122;5.502;2024-03-25T13:36:11;12.70;1.00
18611;DHT22;9435;52.122;5.502;2024-03-25T13:38:37;12.70;1.00
18611;DHT22;9435;52.122;5.502;2024-03-25T13:41:04;12.50;1.00
18611;DHT22;9435;52.122;5.502;2024-03-25T13:43:32;12.50;1.00
18611;DHT22;9435;52.122;5.502;2024-03-25T13:45:58;12.40;1.00
18611;DHT22;9435;52.122;5.502;2024-03-25T13:48:24;12.10;1.00
18611;DHT22;9435;52.122;5.502;2024-03-25T13:50:53;12.00;1.00
18611;DHT22;9435;52.122;5.502;2024-03-25T13:53:20;12.00;1.00
18611;DHT22;9435;52.122;5.502;2024-03-25T13:55:46;12.20;1.00
18611;DHT22;9435;52.122;5.502;2024-03-25T13:58:12;12.40;1.00
18611;DHT22;9435;52.122;5.502;2024-03-25T14:00:40;12.60;1.00
18611;DHT22;9435;52.122;5.502;2024-03-25T14:03:07;12.70;1.00
18611;DHT22;9435;52.122;5.502;2024-03-25T14:05:33;12.80;1.00
18611;DHT22;9435;52.122;5.502;2024-03-25T14:07:59;12.70;1.00
18611;DHT22;9435;52.122;5.502;2024-03-25T14:10:25;12.50;1.00
18611;DHT22;9435;52.122;5.502;2024-03-25T14:12:51;12.30;1.00
18611;DHT22;9435;52.122;5.502;2024-03-25T14:15:17;12.10;1.00
18611;DHT22;9435;52.122;5.502;2024-03-25T14:17:45;12.00;1.00
18611;DHT22;9435;52.122;5.502;2024-03-25T14:20:11;12.00;1.00
18611;DHT22;9435;52.122;5.502;2024-03-25T14:22:38;12.00;1.00
18611;DHT22;9435;52.122;5.502;2024-03-25T14:25:04;11.90;1.00
18611;DHT22;9435;52.122;5.502;2024-03-25T14:27:31;12.00;1.00
18611;DHT22;9435;52.122;5.502;2024-03-25T14:29:57;11.90;1.00
18611;DHT22;9435;52.122;5.502;2024-03-25T14:32:24;11.80;1.00
18611;DHT22;9435;52.122;5.502;2024-03-25T14:34:52;11.70;1.00
18611;DHT22;9435;52.122;5.502;2024-03-25T14:37:18;11.70;1.00
18611;DHT22;9435;52.122;5.502;2024-03-25T14:39:44;11.70;1.00
18611;DHT22;9435;52.122;5.502;2024-03-25T14:42:10;11.90;1.00
18611;DHT22;9435;52.122;5.502;2024-03-25T14:44:37;12.00;1.00
18611;DHT22;9435;52.122;5.502;2024-03-25T14:47:03;12.10;1.00
18611;DHT22;9435;52.122;5.502;2024-03-25T14:49:29;12.20;1.00
18611;DHT22;9435;52.122;5.502;2024-03-25T14:51:57;12.10;1.00
18611;DHT22;9435;52.122;5.502;2024-03-25T14:54:23;11.90;1.00
18611;DHT22;9435;52.122;5.502;2024-03-25T14:56:58;11.80;1.00
18611;DHT22;9435;52.122;5.502;2024-03-25T14:59:24;11.60;1.00
18611;DHT22;9435;52.122;5.502;2024-03-25T15:01:51;11.60;1.00
18611;DHT22;9435;52.122;5.502;2024-03-25T15:04:17;11.40;1.00
18611;DHT22;9435;52.122;5.502;2024-03-25T15:06:43;11.30;1.00
18611;DHT22;9435;52.122;5.502;2024-03-25T15:09:10;11.20;1.00
18611;DHT22;9435;52.122;5.502;2024-03-25T15:11:36;11.30;1.00
18611;DHT22;9435;52.122;5.502;2024-03-25T15:14:02;11.40;1.00
18611;DHT22;9435;52.122;5.502;2024-03-25T15:16:28;11.60;1.00
18611;DHT22;9435;52.122;5.502;2024-03-25T15:18:55;11.80;1.00
18611;DHT22;9435;52.122;5.502;2024-03-25T15:21:21;11.90;1.00
18611;DHT22;9435;52.122;5.502;2024-03-25T15:23:47;11.80;1.00
18611;DHT22;9435;52.122;5.502;2024-03-25T15:26:15;11.90;1.00
18611;DHT22;9435;52.122;5.502;2024-03-25T15:28:41;11.90;1.00
18611;DHT22;9435;52.122;5.502;2024-03-25T15:31:07;11.90;1.00
18611;DHT22;9435;52.122;5.502;2024-03-25T15:33:33;11.90;1.00
18611;DHT22;9435;52.122;5.502;2024-03-25T15:35:59;11.90;1.00
18611;DHT22;9435;52.122;5.502;2024-03-25T15:38:25;11.90;1.00
18611;DHT22;9435;52.122;5.502;2024-03-25T15:40:51;11.80;1.00
18611;DHT22;9435;52.122;5.502;2024-03-25T15:43:19;11.70;1.00
18611;DHT22;9435;52.122;5.502;2024-03-25T15:45:54;11.60;1.00
18611;DHT22;9435;52.122;5.502;2024-03-25T15:48:20;11.70;1.00
18611;DHT22;9435;52.122;5.502;2024-03-25T15:50:46;11.70;1.00
18611;DHT22;9435;52.122;5.502;2024-03-25T15:53:12;11.80;1.00
18611;DHT22;9435;52.122;5.502;2024-03-25T15:55:39;11.80;1.00
18611;DHT22;9435;52.122;5.502;2024-03-25T15:58:05;11.90;1.00
18611;DHT22;9435;52.122;5.502;2024-03-25T16:00:32;11.90;1.00